Airfield :
LOGIN :

Register | Disclaimer

   EN    FR    IT 

 










Legend :    VFR   Marginal VFR   IFR   Intensive IFR   Very Intensive IFR
Visi :
Ceiling :
>= 8 km
>= 3000ft
5 to 8 km
1000 to 3000 ft
1500m to 5 km
500 to 1000 ft
800 to 1500m
200 to 500 ft
< 800m
< 200 ft
Symbols :   Thunderstorms  Fog  Heavy snow  Heavy precipitations  Wind > 20 kt
SIGMETs :     Misc.  Thunderstorms  Icing  Turbulence  Mountain Waves  Volcanic Ashes






- Airport Elevation : 74 ft
- IATA code : LRH


LFBH - La Rochelle Ile de Ré

CURRENT METAR :
  • 070330Z AUTO 03004KT 9999 BKN017 02/01 Q1019 TEMPO BKN013

EXPIRED METARs :
  • 070300Z AUTO 05006KT 9999 SCT017 01/00 Q1019 BECMG BKN013
  • 070230Z AUTO 05007KT 9999 OVC017 02/01 Q1019 BECMG BKN013
  • 070200Z AUTO 05008KT 9999 BKN017 02/01 Q1019 BECMG BKN013
  • 070130Z AUTO 04007KT CAVOK 01/00 Q1019 BECMG BKN013
  • 070100Z AUTO 04007KT CAVOK 01/M00 Q1019 BECMG BKN013

TAF AMD TAF LFBH
Valid from the 07 at 03:00 until the 08 at 00:00 UTC


070313Z 0703/0724 04007KT 9999 BKN017
PROB40
TEMPO 0703/0710 BKN013
ATIS : +33 5 46 00 13 92



MET'MAP, your aeronautical weather chart ! - Copyright ORBIFLY December 2007 - Disclaimer

ORBIFLY MET'MAP TEAM :

Programming & Development : Alexandra Zaïnal
Original concept : Baudouin d'Aumeries
Technical & hardware support : Manuel Goepfert
Assistance : Marc-Olivier Méhu




SOURCES & CREDITS :

   NOAA